sensor_id;sensor_type;location;lat;lon;timestamp;temperature;humidity
13569;DHT22;6856;51.460;7.158;2023-06-14T00:01:09;23.90;36.40
13569;DHT22;6856;51.460;7.158;2023-06-14T00:03:47;23.80;37.10
13569;DHT22;6856;51.460;7.158;2023-06-14T00:06:21;23.80;37.40
13569;DHT22;6856;51.460;7.158;2023-06-14T00:08:57;23.80;37.00
13569;DHT22;6856;51.460;7.158;2023-06-14T00:11:32;23.80;37.00
13569;DHT22;6856;51.460;7.158;2023-06-14T00:14:09;23.80;36.90
13569;DHT22;6856;51.460;7.158;2023-06-14T00:16:43;23.80;36.80
13569;DHT22;6856;51.460;7.158;2023-06-14T00:19:19;23.70;37.10
13569;DHT22;6856;51.460;7.158;2023-06-14T00:21:53;23.70;37.30
13569;DHT22;6856;51.460;7.158;2023-06-14T00:24:27;23.70;37.30
13569;DHT22;6856;51.460;7.158;2023-06-14T00:27:03;23.60;37.40
13569;DHT22;6856;51.460;7.158;2023-06-14T00:29:39;23.60;37.40
13569;DHT22;6856;51.460;7.158;2023-06-14T00:32:13;23.60;37.10
13569;DHT22;6856;51.460;7.158;2023-06-14T00:34:49;23.50;37.30
13569;DHT22;6856;51.460;7.158;2023-06-14T00:37:23;23.40;37.10
13569;DHT22;6856;51.460;7.158;2023-06-14T00:39:56;23.40;37.30
13569;DHT22;6856;51.460;7.158;2023-06-14T00:42:33;23.40;37.50
13569;DHT22;6856;51.460;7.158;2023-06-14T00:45:09;23.30;37.40
13569;DHT22;6856;51.460;7.158;2023-06-14T00:47:46;23.30;37.80
13569;DHT22;6856;51.460;7.158;2023-06-14T00:50:24;23.20;37.70
13569;DHT22;6856;51.460;7.158;2023-06-14T00:52:59;23.20;37.50
13569;DHT22;6856;51.460;7.158;2023-06-14T00:55:34;23.10;37.90
13569;DHT22;6856;51.460;7.158;2023-06-14T00:58:10;23.10;37.80
13569;DHT22;6856;51.460;7.158;2023-06-14T01:00:44;23.00;38.00
13569;DHT22;6856;51.460;7.158;2023-06-14T01:03:19;23.00;37.80
13569;DHT22;6856;51.460;7.158;2023-06-14T01:05:59;22.90;37.90
13569;DHT22;6856;51.460;7.158;2023-06-14T01:08:51;22.90;38.30
13569;DHT22;6856;51.460;7.158;2023-06-14T01:11:41;22.90;38.20
13569;DHT22;6856;51.460;7.158;2023-06-14T01:14:24;22.80;38.30
13569;DHT22;6856;51.460;7.158;2023-06-14T01:17:01;22.60;38.10
13569;DHT22;6856;51.460;7.158;2023-06-14T01:19:37;22.80;38.20
13569;DHT22;6856;51.460;7.158;2023-06-14T01:22:11;22.80;37.60
13569;DHT22;6856;51.460;7.158;2023-06-14T01:24:48;22.70;38.20
13569;DHT22;6856;51.460;7.158;2023-06-14T01:27:23;22.80;38.40
13569;DHT22;6856;51.460;7.158;2023-06-14T01:30:00;22.70;38.50
13569;DHT22;6856;51.460;7.158;2023-06-14T01:32:37;22.70;38.30
13569;DHT22;6856;51.460;7.158;2023-06-14T01:35:12;22.70;38.50
13569;DHT22;6856;51.460;7.158;2023-06-14T01:37:48;22.70;38.40
13569;DHT22;6856;51.460;7.158;2023-06-14T01:40:26;22.70;38.70
13569;DHT22;6856;51.460;7.158;2023-06-14T01:43:01;22.70;38.70
13569;DHT22;6856;51.460;7.158;2023-06-14T01:45:39;22.60;38.60
13569;DHT22;6856;51.460;7.158;2023-06-14T01:48:14;22.60;38.80
13569;DHT22;6856;51.460;7.158;2023-06-14T01:50:49;22.60;38.70
13569;DHT22;6856;51.460;7.158;2023-06-14T01:53:23;22.60;38.80
13569;DHT22;6856;51.460;7.158;2023-06-14T01:56:02;22.60;38.50
13569;DHT22;6856;51.460;7.158;2023-06-14T01:58:40;22.60;38.60
13569;DHT22;6856;51.460;7.158;2023-06-14T02:01:14;22.50;38.30
13569;DHT22;6856;51.460;7.158;2023-06-14T02:03:51;22.50;38.20
13569;DHT22;6856;51.460;7.158;2023-06-14T02:06:28;22.50;38.30
13569;DHT22;6856;51.460;7.158;2023-06-14T02:09:03;22.50;38.90
13569;DHT22;6856;51.460;7.158;2023-06-14T02:11:38;22.50;38.90
13569;DHT22;6856;51.460;7.158;2023-06-14T02:14:13;22.40;38.80
13569;DHT22;6856;51.460;7.158;2023-06-14T02:16:49;22.40;38.70
13569;DHT22;6856;51.460;7.158;2023-06-14T02:19:23;22.40;38.80
13569;DHT22;6856;51.460;7.158;2023-06-14T02:21:59;22.40;39.00
13569;DHT22;6856;51.460;7.158;2023-06-14T02:24:34;22.30;38.90
13569;DHT22;6856;51.460;7.158;2023-06-14T02:27:11;22.30;39.60
13569;DHT22;6856;51.460;7.158;2023-06-14T02:29:45;22.30;38.90
13569;DHT22;6856;51.460;7.158;2023-06-14T02:32:19;22.20;39.00
13569;DHT22;6856;51.460;7.158;2023-06-14T02:34:55;22.20;39.00
13569;DHT22;6856;51.460;7.158;2023-06-14T02:37:29;22.20;39.10
13569;DHT22;6856;51.460;7.158;2023-06-14T02:40:05;22.10;38.80
13569;DHT22;6856;51.460;7.158;2023-06-14T02:42:42;22.10;39.30
13569;DHT22;6856;51.460;7.158;2023-06-14T02:45:18;22.10;38.70
13569;DHT22;6856;51.460;7.158;2023-06-14T02:47:59;22.10;38.20
13569;DHT22;6856;51.460;7.158;2023-06-14T02:50:33;22.00;39.20
13569;DHT22;6856;51.460;7.158;2023-06-14T02:53:08;22.00;39.10
13569;DHT22;6856;51.460;7.158;2023-06-14T02:55:44;22.00;39.40
13569;DHT22;6856;51.460;7.158;2023-06-14T02:58:22;21.90;39.30
13569;DHT22;6856;51.460;7.158;2023-06-14T03:00:57;21.90;39.50
13569;DHT22;6856;51.460;7.158;2023-06-14T03:03:35;21.90;39.50
13569;DHT22;6856;51.460;7.158;2023-06-14T03:06:11;21.80;39.50
13569;DHT22;6856;51.460;7.158;2023-06-14T03:08:48;21.80;39.20
13569;DHT22;6856;51.460;7.158;2023-06-14T03:11:22;21.80;39.70
13569;DHT22;6856;51.460;7.158;2023-06-14T03:13:58;21.80;39.20
13569;DHT22;6856;51.460;7.158;2023-06-14T03:16:32;21.70;38.90
13569;DHT22;6856;51.460;7.158;2023-06-14T03:19:06;21.70;39.50
13569;DHT22;6856;51.460;7.158;2023-06-14T03:21:40;21.70;39.70
13569;DHT22;6856;51.460;7.158;2023-06-14T03:24:16;21.70;39.50
13569;DHT22;6856;51.460;7.158;2023-06-14T03:26:53;21.70;39.80
13569;DHT22;6856;51.460;7.158;2023-06-14T03:29:29;21.70;39.60
13569;DHT22;6856;51.460;7.158;2023-06-14T03:32:04;21.60;39.20
13569;DHT22;6856;51.460;7.158;2023-06-14T03:34:44;21.60;39.30
13569;DHT22;6856;51.460;7.158;2023-06-14T03:37:19;21.60;39.60
13569;DHT22;6856;51.460;7.158;2023-06-14T03:39:57;21.50;40.00
13569;DHT22;6856;51.460;7.158;2023-06-14T03:42:35;21.50;39.30
13569;DHT22;6856;51.460;7.158;2023-06-14T03:45:11;21.50;40.10
13569;DHT22;6856;51.460;7.158;2023-06-14T03:47:47;21.50;39.90
13569;DHT22;6856;51.460;7.158;2023-06-14T03:50:22;21.50;38.50
13569;DHT22;6856;51.460;7.158;2023-06-14T03:52:58;21.40;39.90
13569;DHT22;6856;51.460;7.158;2023-06-14T03:55:34;21.40;39.80
13569;DHT22;6856;51.460;7.158;2023-06-14T03:58:30;21.40;39.40
13569;DHT22;6856;51.460;7.158;2023-06-14T04:01:09;21.30;39.80
13569;DHT22;6856;51.460;7.158;2023-06-14T04:03:52;21.30;39.80
13569;DHT22;6856;51.460;7.158;2023-06-14T04:06:30;21.30;39.00
13569;DHT22;6856;51.460;7.158;2023-06-14T04:09:07;21.20;39.50
13569;DHT22;6856;51.460;7.158;2023-06-14T04:11:41;21.20;40.40
13569;DHT22;6856;51.460;7.158;2023-06-14T04:14:16;21.20;40.30
13569;DHT22;6856;51.460;7.158;2023-06-14T04:16:51;21.20;39.80
13569;DHT22;6856;51.460;7.158;2023-06-14T04:19:28;21.10;40.20
13569;DHT22;6856;51.460;7.158;2023-06-14T04:22:02;21.10;40.20
13569;DHT22;6856;51.460;7.158;2023-06-14T04:24:39;21.10;40.20
13569;DHT22;6856;51.460;7.158;2023-06-14T04:27:15;21.10;40.50
13569;DHT22;6856;51.460;7.158;2023-06-14T04:29:54;21.10;40.70
13569;DHT22;6856;51.460;7.158;2023-06-14T04:32:31;21.10;40.80
13569;DHT22;6856;51.460;7.158;2023-06-14T04:35:10;21.00;40.40
13569;DHT22;6856;51.460;7.158;2023-06-14T04:37:47;21.00;40.10
13569;DHT22;6856;51.460;7.158;2023-06-14T04:40:22;21.00;40.20
13569;DHT22;6856;51.460;7.158;2023-06-14T04:42:58;21.00;40.80
13569;DHT22;6856;51.460;7.158;2023-06-14T04:45:32;21.00;40.20
13569;DHT22;6856;51.460;7.158;2023-06-14T04:48:12;21.00;40.70
13569;DHT22;6856;51.460;7.158;2023-06-14T04:50:53;21.00;40.30
13569;DHT22;6856;51.460;7.158;2023-06-14T04:53:27;21.00;41.00
13569;DHT22;6856;51.460;7.158;2023-06-14T04:56:03;21.00;41.10
13569;DHT22;6856;51.460;7.158;2023-06-14T04:58:40;21.00;41.60
13569;DHT22;6856;51.460;7.158;2023-06-14T05:01:14;21.00;40.80
13569;DHT22;6856;51.460;7.158;2023-06-14T05:03:49;21.10;41.10
13569;DHT22;6856;51.460;7.158;2023-06-14T05:06:24;21.10;41.20
13569;DHT22;6856;51.460;7.158;2023-06-14T05:08:58;21.10;39.90
13569;DHT22;6856;51.460;7.158;2023-06-14T05:11:32;21.10;41.30
13569;DHT22;6856;51.460;7.158;2023-06-14T05:14:07;21.10;41.00
13569;DHT22;6856;51.460;7.158;2023-06-14T05:16:49;21.10;41.40
13569;DHT22;6856;51.460;7.158;2023-06-14T05:19:32;21.10;41.50
13569;DHT22;6856;51.460;7.158;2023-06-14T05:22:08;21.20;41.60
13569;DHT22;6856;51.460;7.158;2023-06-14T05:24:43;21.20;41.40
13569;DHT22;6856;51.460;7.158;2023-06-14T05:27:22;21.30;41.40
13569;DHT22;6856;51.460;7.158;2023-06-14T05:29:59;21.30;41.60
13569;DHT22;6856;51.460;7.158;2023-06-14T05:32:34;21.30;40.90
13569;DHT22;6856;51.460;7.158;2023-06-14T05:35:10;21.40;41.10
13569;DHT22;6856;51.460;7.158;2023-06-14T05:37:44;21.40;41.30
13569;DHT22;6856;51.460;7.158;2023-06-14T05:40:20;21.50;41.30
13569;DHT22;6856;51.460;7.158;2023-06-14T05:42:56;21.50;40.50
13569;DHT22;6856;51.460;7.158;2023-06-14T05:45:35;21.50;40.40
13569;DHT22;6856;51.460;7.158;2023-06-14T05:48:11;21.60;40.70
13569;DHT22;6856;51.460;7.158;2023-06-14T05:50:49;21.60;40.70
13569;DHT22;6856;51.460;7.158;2023-06-14T05:53:23;21.60;41.40
13569;DHT22;6856;51.460;7.158;2023-06-14T05:55:58;21.70;41.40
13569;DHT22;6856;51.460;7.158;2023-06-14T05:58:33;21.70;40.80
13569;DHT22;6856;51.460;7.158;2023-06-14T06:01:07;21.80;41.50
13569;DHT22;6856;51.460;7.158;2023-06-14T06:03:42;21.60;40.40
13569;DHT22;6856;51.460;7.158;2023-06-14T06:06:22;21.80;40.30
13569;DHT22;6856;51.460;7.158;2023-06-14T06:08:56;21.90;40.20
13569;DHT22;6856;51.460;7.158;2023-06-14T06:11:31;22.00;41.10
13569;DHT22;6856;51.460;7.158;2023-06-14T06:14:23;22.00;40.40
13569;DHT22;6856;51.460;7.158;2023-06-14T06:16:59;22.10;40.50
13569;DHT22;6856;51.460;7.158;2023-06-14T06:19:34;22.20;40.50
13569;DHT22;6856;51.460;7.158;2023-06-14T06:22:12;22.20;40.00
13569;DHT22;6856;51.460;7.158;2023-06-14T06:24:46;22.20;40.60
13569;DHT22;6856;51.460;7.158;2023-06-14T06:27:21;22.30;40.90
13569;DHT22;6856;51.460;7.158;2023-06-14T06:29:58;22.30;40.70
13569;DHT22;6856;51.460;7.158;2023-06-14T06:32:33;22.40;40.60
13569;DHT22;6856;51.460;7.158;2023-06-14T06:35:08;22.50;40.90
13569;DHT22;6856;51.460;7.158;2023-06-14T06:37:44;22.50;40.70
13569;DHT22;6856;51.460;7.158;2023-06-14T06:40:20;22.60;40.60
13569;DHT22;6856;51.460;7.158;2023-06-14T06:42:55;22.70;40.90
13569;DHT22;6856;51.460;7.158;2023-06-14T06:45:31;22.70;40.40
13569;DHT22;6856;51.460;7.158;2023-06-14T06:48:05;22.80;40.50
13569;DHT22;6856;51.460;7.158;2023-06-14T06:50:41;22.90;40.30
13569;DHT22;6856;51.460;7.158;2023-06-14T06:53:17;22.90;40.40
13569;DHT22;6856;51.460;7.158;2023-06-14T06:56:06;23.00;40.20
13569;DHT22;6856;51.460;7.158;2023-06-14T06:58:40;23.00;40.00
13569;DHT22;6856;51.460;7.158;2023-06-14T07:01:14;23.10;40.10
13569;DHT22;6856;51.460;7.158;2023-06-14T07:03:48;23.20;39.80
13569;DHT22;6856;51.460;7.158;2023-06-14T07:06:26;23.20;40.60
13569;DHT22;6856;51.460;7.158;2023-06-14T07:09:01;23.30;39.70
13569;DHT22;6856;51.460;7.158;2023-06-14T07:11:36;23.40;40.10
13569;DHT22;6856;51.460;7.158;2023-06-14T07:14:11;23.40;40.10
13569;DHT22;6856;51.460;7.158;2023-06-14T07:16:45;23.50;40.50
13569;DHT22;6856;51.460;7.158;2023-06-14T07:19:20;23.60;40.20
13569;DHT22;6856;51.460;7.158;2023-06-14T07:21:54;23.60;39.50
13569;DHT22;6856;51.460;7.158;2023-06-14T07:24:32;23.70;39.10
13569;DHT22;6856;51.460;7.158;2023-06-14T07:27:12;23.80;37.80
13569;DHT22;6856;51.460;7.158;2023-06-14T07:29:46;23.80;38.60
13569;DHT22;6856;51.460;7.158;2023-06-14T07:32:20;23.90;39.20
13569;DHT22;6856;51.460;7.158;2023-06-14T07:34:55;23.90;39.10
13569;DHT22;6856;51.460;7.158;2023-06-14T07:37:31;24.00;38.90
13569;DHT22;6856;51.460;7.158;2023-06-14T07:40:11;24.00;38.20
13569;DHT22;6856;51.460;7.158;2023-06-14T07:42:53;24.10;39.20
13569;DHT22;6856;51.460;7.158;2023-06-14T07:45:30;24.30;38.00
13569;DHT22;6856;51.460;7.158;2023-06-14T07:48:09;24.20;38.30
13569;DHT22;6856;51.460;7.158;2023-06-14T07:50:58;24.30;38.90
13569;DHT22;6856;51.460;7.158;2023-06-14T07:53:34;24.10;38.20
13569;DHT22;6856;51.460;7.158;2023-06-14T07:56:13;24.40;37.80
13569;DHT22;6856;51.460;7.158;2023-06-14T07:58:51;24.50;38.60
13569;DHT22;6856;51.460;7.158;2023-06-14T08:01:29;24.50;38.20
13569;DHT22;6856;51.460;7.158;2023-06-14T08:04:07;24.50;37.30
13569;DHT22;6856;51.460;7.158;2023-06-14T08:06:56;24.60;38.30
13569;DHT22;6856;51.460;7.158;2023-06-14T08:09:54;24.70;38.60
13569;DHT22;6856;51.460;7.158;2023-06-14T08:12:32;24.70;38.30
13569;DHT22;6856;51.460;7.158;2023-06-14T08:15:12;24.80;38.00
13569;DHT22;6856;51.460;7.158;2023-06-14T08:17:48;24.90;38.00
13569;DHT22;6856;51.460;7.158;2023-06-14T08:20:25;25.00;37.40
13569;DHT22;6856;51.460;7.158;2023-06-14T08:22:59;25.00;38.20
13569;DHT22;6856;51.460;7.158;2023-06-14T08:25:34;25.10;39.00
13569;DHT22;6856;51.460;7.158;2023-06-14T08:28:09;25.20;39.00
13569;DHT22;6856;51.460;7.158;2023-06-14T08:30:43;25.30;38.60
13569;DHT22;6856;51.460;7.158;2023-06-14T08:33:18;25.40;38.00
13569;DHT22;6856;51.460;7.158;2023-06-14T08:35:53;25.40;37.70
13569;DHT22;6856;51.460;7.158;2023-06-14T08:38:28;25.50;38.00
13569;DHT22;6856;51.460;7.158;2023-06-14T08:41:05;25.60;37.40
13569;DHT22;6856;51.460;7.158;2023-06-14T08:43:41;25.70;37.80
13569;DHT22;6856;51.460;7.158;2023-06-14T08:46:18;25.70;37.30
13569;DHT22;6856;51.460;7.158;2023-06-14T08:48:56;25.80;37.60
13569;DHT22;6856;51.460;7.158;2023-06-14T08:51:32;25.90;35.90
13569;DHT22;6856;51.460;7.158;2023-06-14T08:54:11;25.90;36.00
13569;DHT22;6856;51.460;7.158;2023-06-14T08:56:49;26.00;36.80
13569;DHT22;6856;51.460;7.158;2023-06-14T08:59:27;26.10;36.80
13569;DHT22;6856;51.460;7.158;2023-06-14T09:02:13;26.10;35.90
13569;DHT22;6856;51.460;7.158;2023-06-14T09:04:52;26.20;36.00
13569;DHT22;6856;51.460;7.158;2023-06-14T09:07:26;26.30;35.70
13569;DHT22;6856;51.460;7.158;2023-06-14T09:10:08;26.40;35.70
13569;DHT22;6856;51.460;7.158;2023-06-14T09:12:43;26.40;36.40
13569;DHT22;6856;51.460;7.158;2023-06-14T09:15:19;26.50;36.40
13569;DHT22;6856;51.460;7.158;2023-06-14T09:17:55;26.50;35.70
13569;DHT22;6856;51.460;7.158;2023-06-14T09:20:30;26.60;35.70
13569;DHT22;6856;51.460;7.158;2023-06-14T09:23:05;26.60;35.90
13569;DHT22;6856;51.460;7.158;2023-06-14T09:25:42;26.60;34.80
13569;DHT22;6856;51.460;7.158;2023-06-14T09:28:19;26.60;35.40
13569;DHT22;6856;51.460;7.158;2023-06-14T09:30:56;26.70;35.50
13569;DHT22;6856;51.460;7.158;2023-06-14T09:33:31;26.70;35.10
13569;DHT22;6856;51.460;7.158;2023-06-14T09:36:12;26.70;35.00
13569;DHT22;6856;51.460;7.158;2023-06-14T09:38:54;26.70;34.90
13569;DHT22;6856;51.460;7.158;2023-06-14T09:41:33;26.80;35.60
13569;DHT22;6856;51.460;7.158;2023-06-14T09:44:11;26.90;35.20
13569;DHT22;6856;51.460;7.158;2023-06-14T09:46:56;26.90;35.10
13569;DHT22;6856;51.460;7.158;2023-06-14T09:49:33;26.70;34.50
13569;DHT22;6856;51.460;7.158;2023-06-14T09:52:12;27.00;34.90
13569;DHT22;6856;51.460;7.158;2023-06-14T09:54:49;27.10;35.70
13569;DHT22;6856;51.460;7.158;2023-06-14T09:57:23;27.20;35.70
13569;DHT22;6856;51.460;7.158;2023-06-14T10:00:01;27.30;34.90
13569;DHT22;6856;51.460;7.158;2023-06-14T10:02:47;27.40;34.60
13569;DHT22;6856;51.460;7.158;2023-06-14T10:05:27;27.40;35.20
13569;DHT22;6856;51.460;7.158;2023-06-14T10:08:07;27.50;35.40
13569;DHT22;6856;51.460;7.158;2023-06-14T10:10:42;27.60;34.60
13569;DHT22;6856;51.460;7.158;2023-06-14T10:13:18;27.70;34.70
13569;DHT22;6856;51.460;7.158;2023-06-14T10:16:00;27.70;34.60
13569;DHT22;6856;51.460;7.158;2023-06-14T10:18:48;27.80;34.30
13569;DHT22;6856;51.460;7.158;2023-06-14T10:21:33;27.80;34.30
13569;DHT22;6856;51.460;7.158;2023-06-14T10:24:17;27.90;34.30
13569;DHT22;6856;51.460;7.158;2023-06-14T10:26:54;27.90;33.90
13569;DHT22;6856;51.460;7.158;2023-06-14T10:29:31;28.00;34.20
13569;DHT22;6856;51.460;7.158;2023-06-14T10:32:07;28.00;34.30
13569;DHT22;6856;51.460;7.158;2023-06-14T10:34:43;28.10;34.70
13569;DHT22;6856;51.460;7.158;2023-06-14T10:37:17;28.10;34.20
13569;DHT22;6856;51.460;7.158;2023-06-14T10:39:52;28.20;34.20
13569;DHT22;6856;51.460;7.158;2023-06-14T10:42:32;28.20;34.00
13569;DHT22;6856;51.460;7.158;2023-06-14T10:45:13;28.30;34.10
13569;DHT22;6856;51.460;7.158;2023-06-14T10:47:49;28.40;34.50
13569;DHT22;6856;51.460;7.158;2023-06-14T10:50:29;28.50;34.50
13569;DHT22;6856;51.460;7.158;2023-06-14T10:53:22;28.60;34.20
13569;DHT22;6856;51.460;7.158;2023-06-14T10:56:06;28.60;34.30
13569;DHT22;6856;51.460;7.158;2023-06-14T10:58:40;28.70;34.40
13569;DHT22;6856;51.460;7.158;2023-06-14T11:01:17;28.70;34.10
13569;DHT22;6856;51.460;7.158;2023-06-14T11:04:07;28.80;34.10
13569;DHT22;6856;51.460;7.158;2023-06-14T11:06:50;28.80;33.90
13569;DHT22;6856;51.460;7.158;2023-06-14T11:09:50;28.80;33.90
13569;DHT22;6856;51.460;7.158;2023-06-14T11:12:41;28.80;33.80
13569;DHT22;6856;51.460;7.158;2023-06-14T11:15:18;28.90;33.80
13569;DHT22;6856;51.460;7.158;2023-06-14T11:17:53;28.90;34.00
13569;DHT22;6856;51.460;7.158;2023-06-14T11:20:30;29.00;33.80
13569;DHT22;6856;51.460;7.158;2023-06-14T11:23:11;29.00;33.90
13569;DHT22;6856;51.460;7.158;2023-06-14T11:25:50;29.00;33.60
13569;DHT22;6856;51.460;7.158;2023-06-14T11:28:38;29.00;33.70
13569;DHT22;6856;51.460;7.158;2023-06-14T11:31:14;29.10;33.60
13569;DHT22;6856;51.460;7.158;2023-06-14T11:33:49;29.10;34.10
13569;DHT22;6856;51.460;7.158;2023-06-14T11:36:26;29.20;34.10
13569;DHT22;6856;51.460;7.158;2023-06-14T11:39:05;29.30;34.00
13569;DHT22;6856;51.460;7.158;2023-06-14T11:41:43;29.30;33.50
13569;DHT22;6856;51.460;7.158;2023-06-14T11:44:18;29.40;33.60
13569;DHT22;6856;51.460;7.158;2023-06-14T11:46:52;29.40;33.40
13569;DHT22;6856;51.460;7.158;2023-06-14T11:49:26;29.40;33.10
13569;DHT22;6856;51.460;7.158;2023-06-14T11:52:01;29.40;33.50
13569;DHT22;6856;51.460;7.158;2023-06-14T11:54:39;29.50;33.80
13569;DHT22;6856;51.460;7.158;2023-06-14T11:57:14;29.50;33.30
13569;DHT22;6856;51.460;7.158;2023-06-14T11:59:50;29.60;33.50
13569;DHT22;6856;51.460;7.158;2023-06-14T12:02:26;29.60;33.90
13569;DHT22;6856;51.460;7.158;2023-06-14T12:05:07;29.70;33.60
13569;DHT22;6856;51.460;7.158;2023-06-14T12:07:46;29.60;33.30
13569;DHT22;6856;51.460;7.158;2023-06-14T12:10:23;29.70;33.30
13569;DHT22;6856;51.460;7.158;2023-06-14T12:12:59;29.70;33.20
13569;DHT22;6856;51.460;7.158;2023-06-14T12:16:02;29.70;33.10
13569;DHT22;6856;51.460;7.158;2023-06-14T12:18:38;29.70;33.30
13569;DHT22;6856;51.460;7.158;2023-06-14T12:21:15;29.70;33.00
13569;DHT22;6856;51.460;7.158;2023-06-14T12:23:56;29.80;32.50
13569;DHT22;6856;51.460;7.158;2023-06-14T12:26:32;29.60;32.60
13569;DHT22;6856;51.460;7.158;2023-06-14T12:29:08;29.80;32.50
13569;DHT22;6856;51.460;7.158;2023-06-14T12:31:44;29.90;33.30
13569;DHT22;6856;51.460;7.158;2023-06-14T12:34:18;29.80;32.90
13569;DHT22;6856;51.460;7.158;2023-06-14T12:36:52;29.90;32.80
13569;DHT22;6856;51.460;7.158;2023-06-14T12:39:27;30.00;33.00
13569;DHT22;6856;51.460;7.158;2023-06-14T12:42:05;29.90;32.60
13569;DHT22;6856;51.460;7.158;2023-06-14T12:44:42;30.00;32.90
13569;DHT22;6856;51.460;7.158;2023-06-14T12:47:16;30.00;32.50
13569;DHT22;6856;51.460;7.158;2023-06-14T12:49:50;30.00;32.70
13569;DHT22;6856;51.460;7.158;2023-06-14T12:52:24;30.00;32.90
13569;DHT22;6856;51.460;7.158;2023-06-14T12:54:58;30.00;32.70
13569;DHT22;6856;51.460;7.158;2023-06-14T12:57:34;30.10;32.70
13569;DHT22;6856;51.460;7.158;2023-06-14T13:00:10;30.10;32.90
13569;DHT22;6856;51.460;7.158;2023-06-14T13:02:47;30.10;32.90
13569;DHT22;6856;51.460;7.158;2023-06-14T13:05:24;30.10;32.80
13569;DHT22;6856;51.460;7.158;2023-06-14T13:08:00;30.20;32.90
13569;DHT22;6856;51.460;7.158;2023-06-14T13:10:37;30.20;32.60
13569;DHT22;6856;51.460;7.158;2023-06-14T13:13:13;30.20;32.20
13569;DHT22;6856;51.460;7.158;2023-06-14T13:15:49;30.30;32.40
13569;DHT22;6856;51.460;7.158;2023-06-14T13:18:23;30.30;32.60
13569;DHT22;6856;51.460;7.158;2023-06-14T13:20:59;30.30;32.30
13569;DHT22;6856;51.460;7.158;2023-06-14T13:23:33;30.20;31.90
13569;DHT22;6856;51.460;7.158;2023-06-14T13:26:08;30.20;32.00
13569;DHT22;6856;51.460;7.158;2023-06-14T13:28:44;30.20;31.80
13569;DHT22;6856;51.460;7.158;2023-06-14T13:31:18;30.20;32.90
13569;DHT22;6856;51.460;7.158;2023-06-14T13:33:53;30.20;32.20
13569;DHT22;6856;51.460;7.158;2023-06-14T13:36:27;30.20;32.10
13569;DHT22;6856;51.460;7.158;2023-06-14T13:39:03;30.20;32.00
13569;DHT22;6856;51.460;7.158;2023-06-14T13:41:37;30.20;32.50
13569;DHT22;6856;51.460;7.158;2023-06-14T13:44:13;30.10;31.80
13569;DHT22;6856;51.460;7.158;2023-06-14T13:46:50;30.20;31.80
13569;DHT22;6856;51.460;7.158;2023-06-14T13:49:26;30.10;32.00
13569;DHT22;6856;51.460;7.158;2023-06-14T13:52:00;30.10;31.60
13569;DHT22;6856;51.460;7.158;2023-06-14T13:54:34;30.00;31.60
13569;DHT22;6856;51.460;7.158;2023-06-14T13:57:07;30.00;31.70
13569;DHT22;6856;51.460;7.158;2023-06-14T13:59:45;30.00;32.00
13569;DHT22;6856;51.460;7.158;2023-06-14T14:02:20;30.00;32.30
13569;DHT22;6856;51.460;7.158;2023-06-14T14:04:54;30.00;32.30
13569;DHT22;6856;51.460;7.158;2023-06-14T14:07:28;30.00;32.40
13569;DHT22;6856;51.460;7.158;2023-06-14T14:10:02;30.00;32.40
13569;DHT22;6856;51.460;7.158;2023-06-14T14:12:37;30.00;32.00
13569;DHT22;6856;51.460;7.158;2023-06-14T14:15:13;30.00;32.00
13569;DHT22;6856;51.460;7.158;2023-06-14T14:17:48;30.00;31.90
13569;DHT22;6856;51.460;7.158;2023-06-14T14:20:24;30.00;32.10
13569;DHT22;6856;51.460;7.158;2023-06-14T14:22:58;30.00;31.70
13569;DHT22;6856;51.460;7.158;2023-06-14T14:25:33;30.00;31.90
13569;DHT22;6856;51.460;7.158;2023-06-14T14:28:07;30.00;32.20
13569;DHT22;6856;51.460;7.158;2023-06-14T14:30:43;29.90;31.60
13569;DHT22;6856;51.460;7.158;2023-06-14T14:33:17;29.90;31.50
13569;DHT22;6856;51.460;7.158;2023-06-14T14:35:51;29.80;32.00
13569;DHT22;6856;51.460;7.158;2023-06-14T14:38:26;29.80;32.00
13569;DHT22;6856;51.460;7.158;2023-06-14T14:41:01;29.80;31.90
13569;DHT22;6856;51.460;7.158;2023-06-14T14:43:37;29.70;31.40
13569;DHT22;6856;51.460;7.158;2023-06-14T14:46:13;29.70;31.60
13569;DHT22;6856;51.460;7.158;2023-06-14T14:48:49;29.70;31.30
13569;DHT22;6856;51.460;7.158;2023-06-14T14:51:23;29.70;31.90
13569;DHT22;6856;51.460;7.158;2023-06-14T14:53:58;29.60;31.70
13569;DHT22;6856;51.460;7.158;2023-06-14T14:56:33;29.60;31.80
13569;DHT22;6856;51.460;7.158;2023-06-14T14:59:10;29.60;31.50
13569;DHT22;6856;51.460;7.158;2023-06-14T15:01:45;29.60;31.90
13569;DHT22;6856;51.460;7.158;2023-06-14T15:04:20;29.50;31.90
13569;DHT22;6856;51.460;7.158;2023-06-14T15:06:55;29.50;31.90
13569;DHT22;6856;51.460;7.158;2023-06-14T15:09:29;29.50;32.10
13569;DHT22;6856;51.460;7.158;2023-06-14T15:12:03;29.50;32.10
13569;DHT22;6856;51.460;7.158;2023-06-14T15:14:40;29.50;32.30
13569;DHT22;6856;51.460;7.158;2023-06-14T15:17:15;29.50;31.80
13569;DHT22;6856;51.460;7.158;2023-06-14T15:19:51;29.50;31.60
13569;DHT22;6856;51.460;7.158;2023-06-14T15:22:25;29.40;31.90
13569;DHT22;6856;51.460;7.158;2023-06-14T15:24:59;29.50;32.00
13569;DHT22;6856;51.460;7.158;2023-06-14T15:27:36;29.40;31.80
13569;DHT22;6856;51.460;7.158;2023-06-14T15:30:12;29.40;32.00
13569;DHT22;6856;51.460;7.158;2023-06-14T15:32:48;29.40;31.80
13569;DHT22;6856;51.460;7.158;2023-06-14T15:35:23;29.40;31.50
13569;DHT22;6856;51.460;7.158;2023-06-14T15:37:57;29.30;31.60
13569;DHT22;6856;51.460;7.158;2023-06-14T15:40:30;29.40;31.50
13569;DHT22;6856;51.460;7.158;2023-06-14T15:43:07;29.30;31.40
13569;DHT22;6856;51.460;7.158;2023-06-14T15:45:43;29.30;31.20
13569;DHT22;6856;51.460;7.158;2023-06-14T15:48:19;29.20;31.10
13569;DHT22;6856;51.460;7.158;2023-06-14T15:50:54;29.20;31.40
13569;DHT22;6856;51.460;7.158;2023-06-14T15:53:29;29.20;31.20
13569;DHT22;6856;51.460;7.158;2023-06-14T15:56:04;29.10;31.40
13569;DHT22;6856;51.460;7.158;2023-06-14T15:58:38;29.10;31.50
13569;DHT22;6856;51.460;7.158;2023-06-14T16:01:12;29.10;31.70
13569;DHT22;6856;51.460;7.158;2023-06-14T16:03:48;29.10;32.00
13569;DHT22;6856;51.460;7.158;2023-06-14T16:06:24;29.00;32.10
13569;DHT22;6856;51.460;7.158;2023-06-14T16:08:59;29.10;31.80
13569;DHT22;6856;51.460;7.158;2023-06-14T16:11:35;29.10;31.80
13569;DHT22;6856;51.460;7.158;2023-06-14T16:14:09;29.10;31.50
13569;DHT22;6856;51.460;7.158;2023-06-14T16:16:44;29.00;31.40
13569;DHT22;6856;51.460;7.158;2023-06-14T16:19:22;29.10;31.50
13569;DHT22;6856;51.460;7.158;2023-06-14T16:21:58;29.20;31.70
13569;DHT22;6856;51.460;7.158;2023-06-14T16:24:33;29.00;31.60
13569;DHT22;6856;51.460;7.158;2023-06-14T16:27:07;29.10;31.20
13569;DHT22;6856;51.460;7.158;2023-06-14T16:29:44;29.00;31.60
13569;DHT22;6856;51.460;7.158;2023-06-14T16:32:21;29.10;31.70
13569;DHT22;6856;51.460;7.158;2023-06-14T16:34:56;29.00;31.60
13569;DHT22;6856;51.460;7.158;2023-06-14T16:37:30;29.00;31.40
13569;DHT22;6856;51.460;7.158;2023-06-14T16:40:05;29.10;31.50
13569;DHT22;6856;51.460;7.158;2023-06-14T16:42:40;29.10;31.50
13569;DHT22;6856;51.460;7.158;2023-06-14T16:45:15;29.00;31.20